Time;durP1;ratioP1;P1;durP2;ratioP2;P2;SDS_P1;SDS_P2;PMS_P1;PMS_P2;Temp;Humidity;BMP_temperature;BMP_pressure;BME280_temperature;BME280_humidity;BME280_pressure;Samples;Min_cycle;Max_cycle;Signal;HPM_P1;HPM_P2
2021/08/20 00:01:37;;;;;;;4.30;3.90;;;20.10;1.00;;;;;;5066047;28;20196;-61
2021/08/20 00:04:03;;;;;;;5.27;4.17;;;20.10;1.00;;;;;;5065828;28;20206;-60
2021/08/20 00:06:29;;;;;;;4.80;4.37;;;20.10;1.00;;;;;;5062062;28;20279;-62
2021/08/20 00:08:55;;;;;;;4.77;4.30;;;20.00;1.00;;;;;;5066501;28;20880;-60
2021/08/20 00:11:20;;;;;;;3.80;3.50;;;20.00;1.00;;;;;;5067208;28;20189;-62
2021/08/20 00:13:46;;;;;;;5.10;4.60;;;20.00;1.00;;;;;;5064798;28;20206;-61
2021/08/20 00:16:11;;;;;;;4.00;3.70;;;20.10;1.00;;;;;;5080091;28;20198;-61
2021/08/20 00:18:37;;;;;;;4.80;3.90;;;20.20;1.00;;;;;;5074798;28;20190;-59
2021/08/20 00:21:02;;;;;;;4.47;4.07;;;20.30;1.00;;;;;;5066344;28;20268;-61
2021/08/20 00:23:28;;;;;;;4.30;3.97;;;20.30;1.00;;;;;;5066621;28;20733;-60
2021/08/20 00:25:53;;;;;;;4.70;4.30;;;20.30;1.00;;;;;;5065526;28;20268;-61
2021/08/20 00:28:19;;;;;;;4.10;3.80;;;20.60;1.00;;;;;;5064322;28;20284;-60
2021/08/20 00:30:48;;;;;;;4.37;3.97;;;20.80;1.00;;;;;;5066812;28;20185;-61
2021/08/20 00:33:14;;;;;;;3.67;3.37;;;20.70;1.00;;;;;;5066523;28;20233;-60
2021/08/20 00:35:40;;;;;;;3.87;3.57;;;20.80;1.00;;;;;;5061904;28;20470;-60
2021/08/20 00:38:05;;;;;;;4.20;3.80;;;20.90;1.00;;;;;;5065045;28;20184;-60
2021/08/20 00:40:32;;;;;;;6.00;4.00;;;20.90;1.00;;;;;;5079641;28;20210;-60
2021/08/20 00:42:58;;;;;;;4.80;3.57;;;20.90;1.00;;;;;;5066241;28;20526;-60
2021/08/20 00:45:23;;;;;;;4.43;3.30;;;20.80;1.00;;;;;;5055818;28;20422;-60
2021/08/20 00:47:49;;;;;;;3.63;3.33;;;20.80;1.00;;;;;;5064349;28;20207;-60
2021/08/20 00:50:15;;;;;;;4.73;3.30;;;20.70;1.00;;;;;;5052815;28;20184;-61
2021/08/20 00:52:41;;;;;;;3.50;3.20;;;20.70;1.00;;;;;;5052757;28;20446;-61
2021/08/20 00:55:09;;;;;;;4.43;3.33;;;20.70;1.00;;;;;;5052063;28;20268;-59
2021/08/20 00:57:34;;;;;;;3.83;3.53;;;20.70;1.00;;;;;;5052944;28;20201;-60
2021/08/20 01:00:00;;;;;;;3.77;3.47;;;20.70;1.00;;;;;;5049778;28;20447;-60
2021/08/20 01:02:26;;;;;;;3.50;3.17;;;20.70;1.00;;;;;;5052224;28;20204;-60
2021/08/20 01:04:52;;;;;;;4.20;3.50;;;20.70;1.00;;;;;;5052677;28;20203;-60
2021/08/20 01:07:17;;;;;;;3.70;3.40;;;20.70;1.00;;;;;;5051904;28;20211;-60
2021/08/20 01:09:46;;;;;;;3.60;3.30;;;20.70;1.00;;;;;;5052548;28;20214;-61
2021/08/20 01:12:11;;;;;;;4.80;3.20;;;20.60;1.00;;;;;;5053050;28;20238;-60
2021/08/20 01:14:37;;;;;;;3.63;3.33;;;20.60;1.00;;;;;;5051951;28;20454;-60
2021/08/20 01:17:08;;;;;;;3.60;3.30;;;20.50;1.00;;;;;;5050313;28;20247;-60
2021/08/20 01:19:35;;;;;;;3.30;3.00;;;20.50;1.00;;;;;;5054641;28;20183;-60
2021/08/20 01:22:03;;;;;;;4.63;3.50;;;20.50;1.00;;;;;;5051212;28;20780;-59
2021/08/20 01:24:29;;;;;;;3.57;3.27;;;20.50;1.00;;;;;;5052737;28;20425;-60
2021/08/20 01:26:55;;;;;;;4.53;2.97;;;20.40;1.00;;;;;;5055669;28;20513;-60
2021/08/20 01:29:21;;;;;;;3.73;3.43;;;20.40;1.00;;;;;;5051749;28;20750;-60
2021/08/20 01:31:47;;;;;;;4.07;3.70;;;20.50;1.00;;;;;;5051520;28;20443;-61
2021/08/20 01:34:14;;;;;;;4.07;3.67;;;20.50;1.00;;;;;;5052382;28;20237;-60
2021/08/20 01:36:40;;;;;;;3.40;3.10;;;20.50;1.00;;;;;;5052136;28;20415;-60
2021/08/20 01:39:06;;;;;;;4.40;3.53;;;20.40;1.00;;;;;;5049612;28;20449;-59
2021/08/20 01:41:33;;;;;;;4.20;3.80;;;20.40;1.00;;;;;;5050952;28;20444;-60
2021/08/20 01:43:59;;;;;;;3.77;3.47;;;20.40;1.00;;;;;;5061144;28;20452;-60
2021/08/20 01:46:26;;;;;;;3.50;3.20;;;20.40;1.00;;;;;;5056589;28;20455;-60
2021/08/20 01:48:54;;;;;;;4.17;3.50;;;20.40;1.00;;;;;;5049224;28;20528;-60
2021/08/20 01:51:21;;;;;;;3.43;3.13;;;20.30;1.00;;;;;;5051315;28;20573;-60
2021/08/20 01:53:47;;;;;;;3.93;3.53;;;20.30;1.00;;;;;;5049545;28;20517;-60
2021/08/20 01:56:17;;;;;;;4.70;3.13;;;20.30;1.00;;;;;;5049458;28;20474;-60
2021/08/20 01:58:44;;;;;;;3.80;3.50;;;20.20;1.00;;;;;;5052092;28;20191;-59
2021/08/20 02:01:10;;;;;;;3.67;3.37;;;20.20;1.00;;;;;;5050659;28;20440;-60
2021/08/20 02:03:35;;;;;;;3.50;3.20;;;20.20;1.00;;;;;;5051879;28;20458;-60
2021/08/20 02:06:01;;;;;;;4.30;3.90;;;20.10;1.00;;;;;;5051942;28;20271;-60
2021/08/20 02:08:26;;;;;;;4.30;3.83;;;20.20;1.00;;;;;;5049527;28;20215;-59
2021/08/20 02:10:55;;;;;;;3.83;3.53;;;20.20;1.00;;;;;;5056854;28;20183;-59
2021/08/20 02:13:24;;;;;;;4.77;4.30;;;20.20;1.00;;;;;;5051536;28;20542;-59
2021/08/20 02:15:50;;;;;;;4.57;4.17;;;20.20;1.00;;;;;;5051369;28;20839;-60
2021/08/20 02:18:16;;;;;;;5.00;4.10;;;20.10;1.00;;;;;;5050721;28;20456;-60
2021/08/20 02:20:42;;;;;;;4.10;3.80;;;20.00;1.00;;;;;;5051117;28;20185;-60
2021/08/20 02:23:09;;;;;;;5.37;4.87;;;20.00;1.00;;;;;;5050652;28;20461;-61
2021/08/20 02:25:34;;;;;;;5.33;4.83;;;20.10;1.00;;;;;;5051743;28;20214;-59
2021/08/20 02:28:00;;;;;;;6.00;5.50;;;20.20;1.00;;;;;;5049110;28;20559;-60
2021/08/20 02:30:25;;;;;;;5.50;5.00;;;20.10;1.00;;;;;;5051380;28;20326;-60
2021/08/20 02:32:51;;;;;;;5.37;4.87;;;20.20;1.00;;;;;;5047883;28;20570;-60
2021/08/20 02:35:17;;;;;;;5.37;4.87;;;20.20;1.00;;;;;;5051248;28;20210;-59
2021/08/20 02:37:42;;;;;;;5.50;5.00;;;20.10;1.00;;;;;;5050925;28;20202;-60
2021/08/20 02:40:08;;;;;;;5.43;4.87;;;20.00;1.00;;;;;;5051561;28;20421;-60
2021/08/20 02:42:34;;;;;;;6.07;4.90;;;20.00;1.00;;;;;;5049889;28;20196;-61
2021/08/20 02:44:59;;;;;;;5.50;5.10;;;20.00;1.00;;;;;;5049696;28;20504;-61
2021/08/20 02:47:25;;;;;;;5.27;4.53;;;20.00;1.00;;;;;;5054725;28;20190;-60
2021/08/20 02:49:50;;;;;;;5.37;4.87;;;20.00;1.00;;;;;;5060426;28;20200;-60
2021/08/20 02:52:16;;;;;;;6.10;4.50;;;20.00;1.00;;;;;;5050453;28;20189;-61
2021/08/20 02:54:43;;;;;;;5.70;4.80;;;20.10;1.00;;;;;;5048866;28;20235;-60
2021/08/20 02:57:08;;;;;;;5.63;5.03;;;20.10;1.00;;;;;;5048882;28;20271;-60
2021/08/20 02:59:34;;;;;;;5.27;4.77;;;20.10;1.00;;;;;;5048903;28;20662;-61
2021/08/20 03:01:59;;;;;;;6.13;5.53;;;20.10;1.00;;;;;;5050796;28;20230;-61
2021/08/20 03:04:26;;;;;;;5.30;4.80;;;20.00;1.00;;;;;;5049465;28;20188;-59
2021/08/20 03:06:52;;;;;;;5.70;5.20;;;20.00;1.00;;;;;;5051129;28;20185;-60
2021/08/20 03:09:19;;;;;;;5.87;5.37;;;20.10;1.00;;;;;;5049396;28;20421;-60
2021/08/20 03:11:45;;;;;;;5.57;5.07;;;20.00;1.00;;;;;;5050569;28;20445;-61
2021/08/20 03:14:10;;;;;;;5.97;5.20;;;20.00;1.00;;;;;;5049446;28;20550;-60
2021/08/20 03:16:36;;;;;;;6.53;5.93;;;19.90;1.00;;;;;;5051016;28;20501;-60
2021/08/20 03:19:01;;;;;;;7.13;5.07;;;19.90;1.00;;;;;;5049292;28;20196;-62
2021/08/20 03:21:27;;;;;;;6.13;5.27;;;19.90;1.00;;;;;;5048626;28;20657;-61
2021/08/20 03:23:53;;;;;;;6.33;5.73;;;19.90;1.00;;;;;;5048165;28;20651;-60
2021/08/20 03:26:19;;;;;;;5.30;4.80;;;19.80;1.00;;;;;;5049610;28;20188;-60
2021/08/20 03:28:44;;;;;;;5.70;5.20;;;19.80;1.00;;;;;;5049699;28;20590;-61
2021/08/20 03:31:10;;;;;;;5.70;5.10;;;19.80;1.00;;;;;;5049502;28;20209;-61
2021/08/20 03:33:35;;;;;;;6.10;5.50;;;19.70;1.00;;;;;;5050123;28;20229;-60
2021/08/20 03:36:01;;;;;;;6.30;5.77;;;19.80;1.00;;;;;;5048044;28;20194;-60
2021/08/20 03:38:26;;;;;;;5.73;5.23;;;19.70;1.00;;;;;;5046543;28;20277;-61
2021/08/20 03:40:52;;;;;;;5.80;5.30;;;19.80;1.00;;;;;;5054495;28;20193;-60
2021/08/20 03:43:17;;;;;;;6.37;5.73;;;19.80;1.00;;;;;;5049457;28;20189;-61
2021/08/20 03:45:43;;;;;;;5.87;5.23;;;19.80;1.00;;;;;;5049627;28;20303;-61
2021/08/20 03:48:09;;;;;;;5.27;4.77;;;19.80;1.00;;;;;;5050306;28;20196;-61
2021/08/20 03:50:35;;;;;;;5.43;4.93;;;19.80;1.00;;;;;;5049701;28;20188;-60
2021/08/20 03:53:00;;;;;;;7.30;6.10;;;20.00;1.00;;;;;;5064306;28;20487;-60
2021/08/20 03:55:26;;;;;;;6.23;5.63;;;19.90;1.00;;;;;;5048366;28;20220;-60
2021/08/20 03:57:54;;;;;;;8.17;5.53;;;19.90;1.00;;;;;;5049746;28;20190;-59
2021/08/20 04:00:20;;;;;;;5.90;5.30;;;19.90;1.00;;;;;;5049778;28;20313;-60
2021/08/20 04:02:45;;;;;;;6.70;5.47;;;19.90;1.00;;;;;;5058723;28;20456;-60
2021/08/20 04:05:11;;;;;;;7.50;5.47;;;19.90;1.00;;;;;;5051974;28;20243;-61
2021/08/20 04:07:36;;;;;;;5.90;4.63;;;19.90;1.00;;;;;;5049864;28;20286;-61
2021/08/20 04:10:02;;;;;;;7.47;5.33;;;19.90;1.00;;;;;;5052127;28;20227;-62
2021/08/20 04:12:28;;;;;;;6.37;5.77;;;19.90;1.00;;;;;;5055921;28;20185;-62
2021/08/20 04:14:53;;;;;;;6.20;4.60;;;19.90;1.00;;;;;;5057287;28;20491;-61
2021/08/20 04:17:19;;;;;;;5.17;4.40;;;19.90;1.00;;;;;;5065439;28;20663;-60
2021/08/20 04:19:44;;;;;;;5.80;5.30;;;19.90;1.00;;;;;;5051606;28;20203;-61
2021/08/20 04:22:10;;;;;;;5.40;4.73;;;19.90;1.00;;;;;;5053898;28;20628;-60
2021/08/20 04:24:36;;;;;;;6.03;5.47;;;19.90;1.00;;;;;;5053239;28;20692;-62
2021/08/20 04:27:02;;;;;;;5.30;4.73;;;19.90;1.00;;;;;;5052702;28;20649;-61
2021/08/20 04:29:27;;;;;;;5.37;4.97;;;19.90;1.00;;;;;;5053289;28;20224;-61
2021/08/20 04:31:54;;;;;;;5.30;4.80;;;20.00;1.00;;;;;;5057143;28;20425;-61
2021/08/20 04:34:20;;;;;;;5.83;5.33;;;20.00;1.00;;;;;;5058048;28;20230;-61
2021/08/20 04:36:45;;;;;;;6.10;5.03;;;20.00;1.00;;;;;;5054414;28;20439;-62
2021/08/20 04:39:11;;;;;;;5.80;5.30;;;20.00;1.00;;;;;;5060980;28;20542;-65
2021/08/20 04:41:36;;;;;;;5.47;4.97;;;20.00;1.00;;;;;;5056293;28;20192;-66
2021/08/20 04:44:02;;;;;;;5.27;4.77;;;20.10;1.00;;;;;;5063141;28;20240;-64
2021/08/20 04:46:27;;;;;;;6.00;5.10;;;20.00;1.00;;;;;;5068022;28;20242;-63
2021/08/20 04:48:53;;;;;;;6.73;5.97;;;20.00;1.00;;;;;;5060051;28;20193;-64
2021/08/20 04:51:18;;;;;;;8.10;5.80;;;19.90;1.00;;;;;;5056329;28;20566;-63
2021/08/20 04:53:44;;;;;;;6.07;4.67;;;19.90;1.00;;;;;;5064085;28;20236;-65
2021/08/20 04:56:09;;;;;;;5.40;4.60;;;19.90;1.00;;;;;;5066565;28;20191;-65
2021/08/20 04:58:35;;;;;;;5.30;4.53;;;20.00;1.00;;;;;;5065210;28;20208;-68
2021/08/20 05:01:02;;;;;;;6.03;5.43;;;20.10;1.00;;;;;;5063787;28;20180;-63
2021/08/20 05:03:27;;;;;;;8.97;6.37;;;20.10;1.00;;;;;;5067603;28;20458;-65
2021/08/20 05:05:53;;;;;;;5.60;5.00;;;20.10;1.00;;;;;;5058148;28;20445;-65
2021/08/20 05:08:19;;;;;;;7.23;5.70;;;20.10;1.00;;;;;;5064835;28;20196;-64
2021/08/20 05:10:44;;;;;;;5.70;5.10;;;20.10;1.00;;;;;;5066031;28;20186;-65
2021/08/20 05:13:10;;;;;;;8.97;4.63;;;20.10;1.00;;;;;;5069585;28;20625;-65
2021/08/20 05:15:35;;;;;;;5.13;4.60;;;20.10;1.00;;;;;;5061637;28;20208;-64
2021/08/20 05:18:02;;;;;;;5.97;5.37;;;20.10;1.00;;;;;;5055063;28;20645;-64
2021/08/20 05:20:29;;;;;;;5.90;4.87;;;20.10;1.00;;;;;;5064697;28;20192;-63
2021/08/20 05:22:55;;;;;;;5.70;5.10;;;20.10;1.00;;;;;;5060092;28;20988;-65
2021/08/20 05:25:23;;;;;;;5.67;5.17;;;20.20;1.00;;;;;;5059971;28;21795;-64
2021/08/20 05:27:49;;;;;;;6.60;4.53;;;20.20;1.00;;;;;;5062026;28;20431;-63
2021/08/20 05:30:15;;;;;;;6.10;5.20;;;20.30;1.00;;;;;;5066914;28;20455;-64
2021/08/20 05:32:41;;;;;;;7.57;5.03;;;20.40;1.00;;;;;;5061377;28;20864;-66
2021/08/20 05:35:10;;;;;;;9.30;7.70;;;20.30;1.00;;;;;;5064523;28;20947;-66
2021/08/20 05:37:36;;;;;;;8.23;4.80;;;20.30;1.00;;;;;;5064941;28;20465;-64
2021/08/20 05:40:03;;;;;;;4.97;4.47;;;20.40;1.00;;;;;;5068181;28;20446;-65
2021/08/20 05:42:29;;;;;;;6.00;4.90;;;20.50;1.00;;;;;;5070045;28;20408;-65
2021/08/20 05:44:55;;;;;;;5.17;4.77;;;20.50;1.00;;;;;;5063866;28;20451;-64
2021/08/20 05:47:21;;;;;;;5.80;5.30;;;20.50;1.00;;;;;;5063697;28;20238;-65
2021/08/20 05:49:47;;;;;;;5.87;5.00;;;20.50;1.00;;;;;;5062172;28;20434;-64
2021/08/20 05:52:12;;;;;;;6.37;5.27;;;20.50;1.00;;;;;;5062233;28;20767;-65
2021/08/20 05:54:38;;;;;;;6.20;5.00;;;20.60;1.00;;;;;;5065736;28;20235;-65
2021/08/20 05:57:04;;;;;;;5.80;5.17;;;20.70;1.00;;;;;;5060397;28;20175;-65
2021/08/20 05:59:29;;;;;;;4.23;3.90;;;20.70;1.00;;;;;;5056818;28;20182;-63
2021/08/20 06:01:55;;;;;;;6.40;4.87;;;20.70;1.00;;;;;;5058883;28;20435;-63
2021/08/20 06:04:20;;;;;;;7.63;5.17;;;20.60;1.00;;;;;;5061735;28;20189;-64
2021/08/20 06:06:46;;;;;;;5.67;5.17;;;20.60;1.00;;;;;;5060674;28;20180;-64
2021/08/20 06:09:11;;;;;;;6.90;5.20;;;20.60;1.00;;;;;;5060528;28;20196;-64
2021/08/20 06:11:37;;;;;;;5.00;4.60;;;20.60;1.00;;;;;;5056315;28;20216;-65
2021/08/20 06:14:03;;;;;;;7.40;4.90;;;20.60;1.00;;;;;;5055229;28;20220;-65
2021/08/20 06:16:28;;;;;;;9.17;5.90;;;20.70;1.00;;;;;;5065786;28;20195;-65
2021/08/20 06:18:54;;;;;;;5.30;4.80;;;20.80;1.00;;;;;;5055071;28;20648;-64
2021/08/20 06:21:19;;;;;;;4.67;4.27;;;20.80;1.00;;;;;;5060228;28;20574;-63
2021/08/20 06:23:45;;;;;;;8.13;5.40;;;20.90;1.00;;;;;;5061735;28;20200;-65
2021/08/20 06:26:11;;;;;;;6.53;5.10;;;20.90;1.00;;;;;;5056602;28;20184;-64
2021/08/20 06:28:36;;;;;;;7.73;4.43;;;21.00;1.00;;;;;;5062303;28;20189;-64
2021/08/20 06:31:03;;;;;;;5.73;4.60;;;21.00;1.00;;;;;;5059544;28;20192;-65
2021/08/20 06:33:31;;;;;;;6.33;4.97;;;21.10;1.00;;;;;;5064721;28;20315;-64
2021/08/20 06:35:56;;;;;;;5.77;5.23;;;21.20;1.00;;;;;;5054547;28;20662;-64
2021/08/20 06:38:22;;;;;;;7.10;4.87;;;21.40;1.00;;;;;;5068146;28;20516;-65
2021/08/20 06:40:47;;;;;;;5.50;4.90;;;21.60;1.00;;;;;;5057166;28;20622;-64
2021/08/20 06:43:13;;;;;;;5.43;4.80;;;21.70;1.00;;;;;;5055666;28;20640;-64
2021/08/20 06:45:38;;;;;;;7.50;5.87;;;21.90;1.00;;;;;;5062928;28;20199;-65
2021/08/20 06:48:04;;;;;;;4.80;4.30;;;22.00;1.00;;;;;;5062405;28;20177;-65
2021/08/20 06:50:30;;;;;;;7.60;4.50;;;22.10;1.00;;;;;;5060332;28;20669;-63
2021/08/20 06:52:58;;;;;;;6.03;4.73;;;22.10;1.00;;;;;;5052091;28;20181;-65
2021/08/20 06:55:24;;;;;;;5.20;4.23;;;22.10;1.00;;;;;;5060719;28;20178;-64
2021/08/20 06:57:49;;;;;;;4.53;4.13;;;22.20;1.00;;;;;;5058351;28;20891;-64
2021/08/20 07:00:15;;;;;;;11.63;4.80;;;22.20;1.00;;;;;;5061173;28;20226;-64
2021/08/20 07:02:42;;;;;;;6.33;4.50;;;22.30;1.00;;;;;;5061217;28;20176;-64
2021/08/20 07:05:09;;;;;;;6.20;4.40;;;22.40;1.00;;;;;;5058930;28;20414;-64
2021/08/20 07:07:35;;;;;;;5.00;4.50;;;22.60;1.00;;;;;;5064958;28;20431;-63
2021/08/20 07:10:00;;;;;;;5.17;4.43;;;22.50;1.00;;;;;;5066694;28;20408;-64
2021/08/20 07:12:26;;;;;;;6.83;4.20;;;22.60;1.00;;;;;;5061049;28;20223;-64
2021/08/20 07:14:51;;;;;;;4.70;4.30;;;22.60;1.00;;;;;;5056426;28;20558;-65
2021/08/20 07:17:17;;;;;;;4.93;4.27;;;22.70;1.00;;;;;;5052582;28;20215;-64
2021/08/20 07:19:43;;;;;;;7.37;4.20;;;22.90;1.00;;;;;;5052615;28;20181;-63
2021/08/20 07:22:09;;;;;;;4.73;4.33;;;23.00;1.00;;;;;;5067570;28;20176;-65
2021/08/20 07:24:36;;;;;;;6.67;3.90;;;23.10;1.00;;;;;;5058180;28;20458;-64
2021/08/20 07:27:02;;;;;;;4.60;4.20;;;23.00;1.00;;;;;;5056922;28;20435;-65
2021/08/20 07:29:27;;;;;;;6.00;4.40;;;22.90;1.00;;;;;;5049476;28;20624;-64
2021/08/20 07:31:53;;;;;;;5.70;4.50;;;22.80;1.00;;;;;;5053514;28;20189;-64
2021/08/20 07:34:18;;;;;;;4.50;3.50;;;22.70;1.00;;;;;;5049976;28;20693;-65
2021/08/20 07:36:44;;;;;;;4.23;3.87;;;22.60;1.00;;;;;;5057737;28;20227;-64
2021/08/20 07:39:09;;;;;;;5.63;4.00;;;22.60;1.00;;;;;;5069904;28;20219;-64
2021/08/20 07:41:35;;;;;;;3.83;3.53;;;22.60;1.00;;;;;;5056306;28;20204;-64
2021/08/20 07:44:00;;;;;;;5.47;4.20;;;22.40;1.00;;;;;;5050199;28;20727;-65
2021/08/20 07:46:26;;;;;;;4.40;3.20;;;22.40;1.00;;;;;;5058222;28;20198;-64
2021/08/20 07:48:51;;;;;;;3.60;3.30;;;22.30;1.00;;;;;;5061046;28;20267;-65
2021/08/20 07:51:17;;;;;;;4.70;3.40;;;22.20;1.00;;;;;;5049887;28;20192;-65
2021/08/20 07:53:42;;;;;;;3.30;3.00;;;22.40;1.00;;;;;;5051051;28;20232;-65
2021/08/20 07:56:08;;;;;;;3.70;3.40;;;22.40;1.00;;;;;;5067249;28;20700;-63
2021/08/20 07:58:33;;;;;;;3.40;3.10;;;22.40;1.00;;;;;;5061354;28;20180;-64
2021/08/20 08:00:59;;;;;;;6.40;3.93;;;22.30;1.00;;;;;;5053952;28;20181;-63
2021/08/20 08:03:24;;;;;;;3.70;3.40;;;22.40;1.00;;;;;;5054035;28;20175;-64
2021/08/20 08:05:50;;;;;;;3.90;3.60;;;22.40;1.00;;;;;;5053277;28;20660;-62
2021/08/20 08:08:15;;;;;;;4.30;3.83;;;22.30;1.00;;;;;;5053806;28;20180;-65
2021/08/20 08:10:41;;;;;;;5.40;4.00;;;22.50;1.00;;;;;;5061381;28;20240;-63
2021/08/20 08:13:07;;;;;;;4.97;4.50;;;22.50;1.00;;;;;;5056787;28;20201;-63
2021/08/20 08:15:32;;;;;;;3.73;3.43;;;22.30;1.00;;;;;;5059553;28;20414;-65
2021/08/20 08:17:58;;;;;;;3.87;3.50;;;22.40;1.00;;;;;;5058799;28;20191;-64
2021/08/20 08:20:24;;;;;;;4.00;3.70;;;22.40;1.00;;;;;;5053524;28;20215;-64
2021/08/20 08:22:49;;;;;;;4.10;3.37;;;22.60;1.00;;;;;;5053697;28;20205;-64
2021/08/20 08:25:16;;;;;;;4.60;4.20;;;22.80;1.00;;;;;;5055186;28;20421;-64
2021/08/20 08:27:47;;;;;;;5.23;4.20;;;23.00;1.00;;;;;;5060031;28;20641;-64
2021/08/20 08:30:13;;;;;;;4.67;4.27;;;23.10;1.00;;;;;;5055538;28;20443;-64
2021/08/20 08:32:39;;;;;;;7.13;4.13;;;23.10;1.00;;;;;;5066222;28;20466;-64
2021/08/20 08:35:05;;;;;;;4.80;4.17;;;23.20;1.00;;;;;;5064765;28;20209;-66
2021/08/20 08:37:30;;;;;;;8.70;4.47;;;23.30;1.00;;;;;;5059399;28;20217;-65
2021/08/20 08:39:56;;;;;;;4.93;4.47;;;23.40;1.00;;;;;;5056653;28;20438;-64
2021/08/20 08:42:21;;;;;;;4.10;3.80;;;23.30;1.00;;;;;;5053575;28;21756;-63
2021/08/20 08:44:47;;;;;;;4.60;4.20;;;23.10;1.00;;;;;;5073576;28;20190;-64
2021/08/20 08:47:15;;;;;;;4.10;3.80;;;23.20;1.00;;;;;;5055223;28;20235;-63
2021/08/20 08:49:42;;;;;;;4.50;4.10;;;23.60;1.00;;;;;;5051798;28;20191;-64
2021/08/20 08:52:09;;;;;;;3.93;3.63;;;23.90;1.00;;;;;;5052943;28;20450;-64
2021/08/20 08:54:34;;;;;;;5.10;3.90;;;24.20;1.00;;;;;;5052524;28;20816;-64
2021/08/20 08:57:00;;;;;;;4.43;3.90;;;24.60;1.00;;;;;;5052006;28;20443;-65
2021/08/20 08:59:25;;;;;;;5.30;3.90;;;24.80;1.00;;;;;;5052814;28;20310;-65
2021/08/20 09:01:51;;;;;;;4.10;3.80;;;25.00;1.00;;;;;;5053004;28;20197;-64
2021/08/20 09:04:24;;;;;;;4.40;4.00;;;25.00;1.00;;;;;;5059991;28;20301;-64
2021/08/20 09:06:52;;;;;;;6.27;4.20;;;25.20;1.00;;;;;;5051399;28;20215;-64
2021/08/20 09:09:20;;;;;;;4.37;3.97;;;25.20;1.00;;;;;;5063254;28;20890;-64
2021/08/20 09:11:54;;;;;;;5.23;4.00;;;25.30;1.00;;;;;;5063838;28;20421;-65
2021/08/20 09:14:27;;;;;;;3.97;3.67;;;25.30;1.00;;;;;;5052857;28;20532;-64
2021/08/20 09:16:54;;;;;;;5.47;4.60;;;24.90;1.00;;;;;;5051722;28;20442;-64
2021/08/20 09:19:22;;;;;;;3.90;3.60;;;24.70;1.00;;;;;;5053120;28;20449;-64
2021/08/20 09:22:08;;;;;;;4.70;3.87;;;24.60;1.00;;;;;;5052795;28;20534;-63
2021/08/20 09:24:39;;;;;;;6.73;3.77;;;24.20;1.00;;;;;;5059242;28;20447;-64
2021/08/20 09:27:14;;;;;;;4.90;4.50;;;24.10;1.00;;;;;;5067861;28;20450;-63
2021/08/20 09:29:57;;;;;;;4.30;3.90;;;24.00;1.00;;;;;;5057580;28;20408;-64
2021/08/20 09:32:24;;;;;;;3.60;3.30;;;23.80;1.00;;;;;;5053735;28;20414;-64
2021/08/20 09:34:51;;;;;;;4.00;3.60;;;23.80;1.00;;;;;;5053774;28;20971;-64
2021/08/20 09:37:18;;;;;;;3.90;3.60;;;23.80;1.00;;;;;;5052628;28;20572;-64
2021/08/20 09:39:48;;;;;;;4.33;3.50;;;23.90;1.00;;;;;;5055161;28;20446;-64
2021/08/20 09:42:17;;;;;;;4.13;3.73;;;24.00;1.00;;;;;;5051201;28;20479;-64
2021/08/20 09:44:43;;;;;;;4.40;3.80;;;24.30;1.00;;;;;;5070799;28;20442;-63
2021/08/20 09:47:09;;;;;;;3.77;3.47;;;24.30;1.00;;;;;;5052199;28;20906;-65
2021/08/20 09:49:57;;;;;;;3.20;2.90;;;24.20;1.00;;;;;;5052254;28;20188;-65
2021/08/20 09:52:29;;;;;;;4.60;3.70;;;24.10;1.00;;;;;;5060060;28;20184;-64
2021/08/20 09:54:55;;;;;;;3.10;2.80;;;24.30;1.00;;;;;;5064801;28;20962;-65
2021/08/20 09:57:25;;;;;;;3.80;3.23;;;24.40;1.00;;;;;;5051804;28;20439;-65
2021/08/20 09:59:57;;;;;;;3.97;3.27;;;24.10;1.00;;;;;;5053128;28;20451;-65
2021/08/20 10:02:28;;;;;;;3.07;2.77;;;24.70;1.00;;;;;;5061947;28;20441;-65
2021/08/20 10:04:55;;;;;;;3.43;3.07;;;24.90;1.00;;;;;;5066333;28;20894;-64
2021/08/20 10:07:22;;;;;;;3.00;2.70;;;25.30;1.00;;;;;;5052454;28;20583;-63
2021/08/20 10:09:48;;;;;;;5.07;3.37;;;25.50;1.00;;;;;;5059292;28;20461;-64
2021/08/20 10:12:34;;;;;;;3.50;3.20;;;25.60;1.00;;;;;;5057508;28;20805;-63
2021/08/20 10:15:00;;;;;;;4.50;3.43;;;25.70;1.00;;;;;;5065342;28;20441;-64
2021/08/20 10:17:26;;;;;;;3.23;2.93;;;25.50;1.00;;;;;;5058694;28;20446;-64
2021/08/20 10:19:51;;;;;;;3.77;2.63;;;25.30;1.00;;;;;;5059117;28;20189;-65
2021/08/20 10:22:20;;;;;;;3.80;3.03;;;24.90;1.00;;;;;;5066087;28;20180;-65
2021/08/20 10:24:46;;;;;;;5.57;3.60;;;24.60;1.00;;;;;;5056551;28;20189;-64
2021/08/20 10:27:15;;;;;;;4.93;3.43;;;24.40;1.00;;;;;;5054263;28;20410;-64
2021/08/20 10:29:45;;;;;;;6.17;3.90;;;24.30;1.00;;;;;;5057091;28;20187;-64
2021/08/20 10:32:13;;;;;;;6.80;3.17;;;24.30;1.00;;;;;;5063385;28;20468;-65
2021/08/20 10:34:40;;;;;;;3.40;3.10;;;24.30;1.00;;;;;;5058211;28;20471;-64
2021/08/20 10:37:11;;;;;;;3.67;3.37;;;24.20;1.00;;;;;;5059253;28;20471;-64
2021/08/20 10:39:40;;;;;;;4.27;3.10;;;23.90;1.00;;;;;;5059379;28;20425;-63
2021/08/20 10:42:18;;;;;;;4.70;3.20;;;23.80;1.00;;;;;;5054483;28;20462;-64
2021/08/20 10:44:46;;;;;;;4.73;3.30;;;23.80;1.00;;;;;;5051227;28;20417;-65
2021/08/20 10:47:30;;;;;;;4.27;3.40;;;23.80;1.00;;;;;;5062136;28;20946;-64
2021/08/20 10:50:13;;;;;;;4.90;3.30;;;23.80;1.00;;;;;;5065890;28;20404;-64
2021/08/20 10:52:44;;;;;;;5.53;3.43;;;23.80;1.00;;;;;;5051923;28;20439;-63
2021/08/20 10:55:15;;;;;;;3.50;3.20;;;23.80;1.00;;;;;;5052833;28;20925;-64
2021/08/20 10:57:42;;;;;;;4.57;3.23;;;23.90;1.00;;;;;;5064870;28;20430;-64
2021/08/20 11:00:21;;;;;;;3.93;3.50;;;24.00;1.00;;;;;;5052785;28;20446;-63
2021/08/20 11:02:49;;;;;;;4.50;3.60;;;23.90;1.00;;;;;;5050429;28;20434;-64
2021/08/20 11:05:15;;;;;;;3.53;3.23;;;24.00;1.00;;;;;;5052222;28;20443;-64
2021/08/20 11:07:41;;;;;;;5.50;3.33;;;24.30;1.00;;;;;;5070640;28;20439;-65
2021/08/20 11:10:10;;;;;;;4.50;2.87;;;24.60;1.00;;;;;;5054949;28;20952;-64
2021/08/20 11:12:43;;;;;;;3.80;3.50;;;24.80;1.00;;;;;;5070887;28;20894;-64
2021/08/20 11:15:17;;;;;;;4.20;3.60;;;24.70;1.00;;;;;;5058110;28;20935;-65
2021/08/20 11:17:57;;;;;;;5.90;3.80;;;24.50;1.00;;;;;;5047788;28;20434;-65
2021/08/20 11:20:23;;;;;;;3.93;3.53;;;24.30;1.00;;;;;;5060630;28;20434;-65
2021/08/20 11:23:11;;;;;;;3.77;3.47;;;24.30;1.00;;;;;;5062672;28;20460;-65
2021/08/20 11:25:46;;;;;;;4.03;3.20;;;24.30;1.00;;;;;;5052051;28;20412;-65
2021/08/20 11:28:32;;;;;;;4.40;4.00;;;24.50;1.00;;;;;;5050317;28;20915;-64
2021/08/20 11:31:06;;;;;;;4.13;3.80;;;24.50;1.00;;;;;;5050672;28;20815;-65
2021/08/20 11:33:36;;;;;;;4.23;3.83;;;25.20;1.00;;;;;;5048982;28;20452;-66
2021/08/20 11:36:08;;;;;;;5.20;4.20;;;25.20;1.00;;;;;;5050395;28;20413;-65
2021/08/20 11:38:33;;;;;;;5.20;3.60;;;25.60;1.00;;;;;;5050491;28;20842;-65
2021/08/20 11:41:06;;;;;;;3.83;3.53;;;26.20;1.00;;;;;;5050077;28;20476;-64
2021/08/20 11:43:32;;;;;;;6.03;3.60;;;26.40;1.00;;;;;;5054409;28;20174;-65
2021/08/20 11:46:04;;;;;;;4.67;4.27;;;26.10;1.00;;;;;;5052094;28;20535;-64
2021/08/20 11:48:29;;;;;;;4.50;4.10;;;25.60;1.00;;;;;;5050324;28;20435;-64
2021/08/20 11:50:57;;;;;;;4.37;3.97;;;25.30;1.00;;;;;;5049872;28;20440;-61
2021/08/20 11:53:24;;;;;;;4.43;4.00;;;25.20;1.00;;;;;;5048777;28;20259;-60
2021/08/20 11:56:05;;;;;;;4.77;4.27;;;25.10;1.00;;;;;;5049727;28;20469;-60
2021/08/20 11:58:31;;;;;;;4.43;4.03;;;24.90;1.00;;;;;;5055963;28;20439;-61
2021/08/20 12:00:56;;;;;;;4.13;3.77;;;24.70;1.00;;;;;;5064686;28;20501;-61
2021/08/20 12:03:23;;;;;;;5.53;4.37;;;24.40;1.00;;;;;;5056778;28;20267;-60
2021/08/20 12:05:48;;;;;;;4.13;3.83;;;24.50;1.00;;;;;;5060991;28;20203;-61
2021/08/20 12:08:18;;;;;;;4.93;4.43;;;24.50;1.00;;;;;;5058700;28;20931;-58
2021/08/20 12:10:49;;;;;;;4.33;4.03;;;24.20;1.00;;;;;;5059388;28;20211;-60
2021/08/20 12:13:15;;;;;;;4.20;3.80;;;24.40;1.00;;;;;;5060685;28;20458;-59
2021/08/20 12:15:41;;;;;;;4.47;4.07;;;24.70;1.00;;;;;;5058459;28;20444;-59
2021/08/20 12:18:25;;;;;;;4.97;4.47;;;25.10;1.00;;;;;;5060884;28;20446;-59
2021/08/20 12:20:51;;;;;;;4.07;3.67;;;24.70;1.00;;;;;;5054879;28;20780;-61
2021/08/20 12:23:18;;;;;;;3.80;3.13;;;24.80;1.00;;;;;;5057058;28;21049;-58
2021/08/20 12:25:43;;;;;;;6.27;4.27;;;25.00;1.00;;;;;;5053572;28;20480;-59
2021/08/20 12:28:12;;;;;;;5.03;4.10;;;25.10;1.00;;;;;;5062967;28;20474;-61
2021/08/20 12:30:37;;;;;;;3.63;3.33;;;25.50;1.00;;;;;;5053882;28;20193;-60
2021/08/20 12:33:04;;;;;;;3.83;3.53;;;25.90;1.00;;;;;;5056238;28;20461;-60
2021/08/20 12:35:30;;;;;;;4.27;3.97;;;26.10;1.00;;;;;;5063179;28;20185;-59
2021/08/20 12:38:08;;;;;;;3.90;3.60;;;26.50;1.00;;;;;;5055839;28;20454;-61
2021/08/20 12:40:42;;;;;;;4.47;3.80;;;26.80;1.00;;;;;;5058661;28;20447;-60
2021/08/20 12:43:29;;;;;;;4.27;3.87;;;26.90;1.00;;;;;;5062822;28;20469;-59
2021/08/20 12:46:10;;;;;;;4.10;3.60;;;26.20;1.00;;;;;;5063040;28;20529;-59
2021/08/20 12:48:40;;;;;;;3.60;3.30;;;25.70;1.00;;;;;;5058519;28;20756;-60
2021/08/20 12:51:12;;;;;;;4.83;4.37;;;25.30;1.00;;;;;;5064247;28;20442;-60
2021/08/20 12:53:38;;;;;;;4.83;4.10;;;25.00;1.00;;;;;;5064081;28;20822;-60
2021/08/20 12:56:05;;;;;;;4.43;4.03;;;24.80;1.00;;;;;;5059260;28;20410;-60
2021/08/20 12:58:33;;;;;;;4.90;4.40;;;24.90;1.00;;;;;;5059437;28;20438;-60